sensor_id;sensor_type;location;lat;lon;timestamp;temperature;humidity
43049;DHT22;28673;44.412;11.918;2023-04-10T00:02:16;11.50;93.40
43049;DHT22;28673;44.412;11.918;2023-04-10T00:04:42;11.50;93.40
43049;DHT22;28673;44.412;11.918;2023-04-10T00:07:08;11.50;93.50
43049;DHT22;28673;44.412;11.918;2023-04-10T00:09:33;11.50;93.50
43049;DHT22;28673;44.412;11.918;2023-04-10T00:11:59;11.50;93.50
43049;DHT22;28673;44.412;11.918;2023-04-10T00:14:25;11.50;93.50
43049;DHT22;28673;44.412;11.918;2023-04-10T00:16:51;11.50;93.60
43049;DHT22;28673;44.412;11.918;2023-04-10T00:19:17;11.50;93.60
43049;DHT22;28673;44.412;11.918;2023-04-10T00:21:43;11.50;93.80
43049;DHT22;28673;44.412;11.918;2023-04-10T00:24:09;11.50;93.80
43049;DHT22;28673;44.412;11.918;2023-04-10T00:26:35;11.40;94.10
43049;DHT22;28673;44.412;11.918;2023-04-10T00:29:02;11.40;94.10
43049;DHT22;28673;44.412;11.918;2023-04-10T00:31:28;11.40;94.10
43049;DHT22;28673;44.412;11.918;2023-04-10T00:33:54;11.40;94.00
43049;DHT22;28673;44.412;11.918;2023-04-10T00:36:20;11.30;94.50
43049;DHT22;28673;44.412;11.918;2023-04-10T00:38:47;11.30;94.30
43049;DHT22;28673;44.412;11.918;2023-04-10T00:41:14;11.30;94.50
43049;DHT22;28673;44.412;11.918;2023-04-10T00:43:42;11.30;94.80
43049;DHT22;28673;44.412;11.918;2023-04-10T00:46:09;11.20;94.80
43049;DHT22;28673;44.412;11.918;2023-04-10T00:48:35;11.20;94.90
43049;DHT22;28673;44.412;11.918;2023-04-10T00:51:02;11.20;94.70
43049;DHT22;28673;44.412;11.918;2023-04-10T00:53:28;11.20;94.80
43049;DHT22;28673;44.412;11.918;2023-04-10T00:55:55;11.20;94.90
43049;DHT22;28673;44.412;11.918;2023-04-10T00:58:22;11.20;94.90
43049;DHT22;28673;44.412;11.918;2023-04-10T01:00:47;11.20;94.90
43049;DHT22;28673;44.412;11.918;2023-04-10T01:03:15;11.20;94.90
43049;DHT22;28673;44.412;11.918;2023-04-10T01:05:50;11.20;95.20
43049;DHT22;28673;44.412;11.918;2023-04-10T01:13:28;11.20;95.20
43049;DHT22;28673;44.412;11.918;2023-04-10T01:16:10;11.20;95.30
43049;DHT22;28673;44.412;11.918;2023-04-10T01:18:43;11.20;95.20
43049;DHT22;28673;44.412;11.918;2023-04-10T01:21:11;11.20;95.20
43049;DHT22;28673;44.412;11.918;2023-04-10T01:24:16;11.20;95.20
43049;DHT22;28673;44.412;11.918;2023-04-10T01:29:51;11.10;95.30
43049;DHT22;28673;44.412;11.918;2023-04-10T01:32:21;11.10;95.30
43049;DHT22;28673;44.412;11.918;2023-04-10T01:34:54;11.10;95.30
43049;DHT22;28673;44.412;11.918;2023-04-10T01:37:29;11.10;95.40
43049;DHT22;28673;44.412;11.918;2023-04-10T01:40:00;11.00;95.40
43049;DHT22;28673;44.412;11.918;2023-04-10T01:42:33;11.00;95.60
43049;DHT22;28673;44.412;11.918;2023-04-10T01:45:03;11.00;95.60
43049;DHT22;28673;44.412;11.918;2023-04-10T01:47:29;10.90;95.70
43049;DHT22;28673;44.412;11.918;2023-04-10T01:49:56;10.90;95.80
43049;DHT22;28673;44.412;11.918;2023-04-10T01:52:23;10.90;95.70
43049;DHT22;28673;44.412;11.918;2023-04-10T01:54:58;10.80;96.00
43049;DHT22;28673;44.412;11.918;2023-04-10T01:57:34;10.80;95.70
43049;DHT22;28673;44.412;11.918;2023-04-10T02:00:04;10.80;95.70
43049;DHT22;28673;44.412;11.918;2023-04-10T02:02:40;10.80;96.00
43049;DHT22;28673;44.412;11.918;2023-04-10T02:05:08;10.70;96.30
43049;DHT22;28673;44.412;11.918;2023-04-10T02:07:56;10.60;96.40
43049;DHT22;28673;44.412;11.918;2023-04-10T02:10:40;10.60;96.60
43049;DHT22;28673;44.412;11.918;2023-04-10T02:13:10;10.60;97.10
43049;DHT22;28673;44.412;11.918;2023-04-10T02:15:42;10.50;96.60
43049;DHT22;28673;44.412;11.918;2023-04-10T02:18:10;10.50;96.70
43049;DHT22;28673;44.412;11.918;2023-04-10T02:20:35;10.50;96.70
43049;DHT22;28673;44.412;11.918;2023-04-10T02:23:02;10.50;96.70
43049;DHT22;28673;44.412;11.918;2023-04-10T02:25:31;10.60;97.10
43049;DHT22;28673;44.412;11.918;2023-04-10T02:27:57;10.50;97.10
43049;DHT22;28673;44.412;11.918;2023-04-10T02:30:23;10.50;97.20
43049;DHT22;28673;44.412;11.918;2023-04-10T02:32:50;10.50;97.20
43049;DHT22;28673;44.412;11.918;2023-04-10T02:35:17;10.50;97.10
43049;DHT22;28673;44.412;11.918;2023-04-10T02:37:43;10.50;97.60
43049;DHT22;28673;44.412;11.918;2023-04-10T02:40:11;10.40;97.70
43049;DHT22;28673;44.412;11.918;2023-04-10T02:42:48;10.40;97.60
43049;DHT22;28673;44.412;11.918;2023-04-10T02:45:14;10.40;97.60
43049;DHT22;28673;44.412;11.918;2023-04-10T02:47:42;10.40;98.10
43049;DHT22;28673;44.412;11.918;2023-04-10T02:50:08;10.30;98.10
43049;DHT22;28673;44.412;11.918;2023-04-10T02:52:37;10.30;98.20
43049;DHT22;28673;44.412;11.918;2023-04-10T02:55:03;10.20;98.30
43049;DHT22;28673;44.412;11.918;2023-04-10T02:57:33;10.20;98.20
43049;DHT22;28673;44.412;11.918;2023-04-10T03:00:00;10.20;98.20
43049;DHT22;28673;44.412;11.918;2023-04-10T03:02:29;10.20;98.30
43049;DHT22;28673;44.412;11.918;2023-04-10T03:05:00;10.20;98.10
43049;DHT22;28673;44.412;11.918;2023-04-10T03:07:27;10.20;98.20
43049;DHT22;28673;44.412;11.918;2023-04-10T03:09:53;10.30;98.10
43049;DHT22;28673;44.412;11.918;2023-04-10T03:12:20;10.30;98.20
43049;DHT22;28673;44.412;11.918;2023-04-10T03:14:46;10.30;98.10
43049;DHT22;28673;44.412;11.918;2023-04-10T03:17:12;10.30;98.20
43049;DHT22;28673;44.412;11.918;2023-04-10T03:19:38;10.30;98.20
43049;DHT22;28673;44.412;11.918;2023-04-10T03:22:05;10.30;98.40
43049;DHT22;28673;44.412;11.918;2023-04-10T03:24:30;10.20;98.40
43049;DHT22;28673;44.412;11.918;2023-04-10T03:26:56;10.20;98.30
43049;DHT22;28673;44.412;11.918;2023-04-10T03:29:23;10.20;98.30
43049;DHT22;28673;44.412;11.918;2023-04-10T03:31:49;10.20;98.70
43049;DHT22;28673;44.412;11.918;2023-04-10T03:34:15;10.20;98.60
43049;DHT22;28673;44.412;11.918;2023-04-10T03:36:41;10.20;98.80
43049;DHT22;28673;44.412;11.918;2023-04-10T03:39:07;10.20;99.40
43049;DHT22;28673;44.412;11.918;2023-04-10T03:41:33;10.10;99.50
43049;DHT22;28673;44.412;11.918;2023-04-10T03:43:58;10.00;99.40
43049;DHT22;28673;44.412;11.918;2023-04-10T03:46:27;10.00;99.30
43049;DHT22;28673;44.412;11.918;2023-04-10T03:48:53;10.00;99.10
43049;DHT22;28673;44.412;11.918;2023-04-10T03:51:20;10.10;99.10
43049;DHT22;28673;44.412;11.918;2023-04-10T03:53:49;10.10;99.20
43049;DHT22;28673;44.412;11.918;2023-04-10T03:56:16;10.10;99.80
43049;DHT22;28673;44.412;11.918;2023-04-10T03:58:42;10.00;99.50
43049;DHT22;28673;44.412;11.918;2023-04-10T04:01:09;9.90;99.90
43049;DHT22;28673;44.412;11.918;2023-04-10T04:03:51;9.90;99.90
43049;DHT22;28673;44.412;11.918;2023-04-10T04:06:40;9.80;99.90
43049;DHT22;28673;44.412;11.918;2023-04-10T04:09:21;9.80;99.90
43049;DHT22;28673;44.412;11.918;2023-04-10T04:12:10;9.70;99.90
43049;DHT22;28673;44.412;11.918;2023-04-10T04:14:45;9.70;99.90
43049;DHT22;28673;44.412;11.918;2023-04-10T04:17:17;9.70;99.90
43049;DHT22;28673;44.412;11.918;2023-04-10T04:20:06;9.70;99.90
43049;DHT22;28673;44.412;11.918;2023-04-10T04:22:50;9.70;99.90
43049;DHT22;28673;44.412;11.918;2023-04-10T04:25:35;9.60;99.90
43049;DHT22;28673;44.412;11.918;2023-04-10T04:28:06;9.70;99.90
43049;DHT22;28673;44.412;11.918;2023-04-10T04:30:37;9.60;99.90
43049;DHT22;28673;44.412;11.918;2023-04-10T04:33:39;9.60;99.90
43049;DHT22;28673;44.412;11.918;2023-04-10T04:36:25;9.60;99.90
43049;DHT22;28673;44.412;11.918;2023-04-10T04:39:18;9.60;99.90
43049;DHT22;28673;44.412;11.918;2023-04-10T04:41:54;9.60;99.90
43049;DHT22;28673;44.412;11.918;2023-04-10T04:44:52;9.60;99.90
43049;DHT22;28673;44.412;11.918;2023-04-10T04:47:41;9.60;99.90
43049;DHT22;28673;44.412;11.918;2023-04-10T04:50:21;9.60;99.90
43049;DHT22;28673;44.412;11.918;2023-04-10T04:53:13;9.50;99.90
43049;DHT22;28673;44.412;11.918;2023-04-10T04:55:57;9.50;99.90
43049;DHT22;28673;44.412;11.918;2023-04-10T04:58:43;9.50;99.90
43049;DHT22;28673;44.412;11.918;2023-04-10T05:01:32;9.50;99.90
43049;DHT22;28673;44.412;11.918;2023-04-10T05:04:07;9.50;99.90
43049;DHT22;28673;44.412;11.918;2023-04-10T05:06:40;9.50;99.90
43049;DHT22;28673;44.412;11.918;2023-04-10T05:09:18;9.40;99.90
43049;DHT22;28673;44.412;11.918;2023-04-10T05:12:04;9.40;99.90
43049;DHT22;28673;44.412;11.918;2023-04-10T05:14:45;9.40;99.90
43049;DHT22;28673;44.412;11.918;2023-04-10T05:17:49;9.40;99.90
43049;DHT22;28673;44.412;11.918;2023-04-10T05:20:40;9.40;99.90
43049;DHT22;28673;44.412;11.918;2023-04-10T05:23:09;9.30;99.90
43049;DHT22;28673;44.412;11.918;2023-04-10T05:25:44;9.30;99.90
43049;DHT22;28673;44.412;11.918;2023-04-10T05:28:33;9.30;99.90
43049;DHT22;28673;44.412;11.918;2023-04-10T05:31:22;9.30;99.90
43049;DHT22;28673;44.412;11.918;2023-04-10T05:34:08;9.30;99.90
43049;DHT22;28673;44.412;11.918;2023-04-10T05:36:53;9.40;99.90
43049;DHT22;28673;44.412;11.918;2023-04-10T05:39:37;9.40;99.90
43049;DHT22;28673;44.412;11.918;2023-04-10T05:42:19;9.40;99.90
43049;DHT22;28673;44.412;11.918;2023-04-10T05:45:04;9.50;99.90
43049;DHT22;28673;44.412;11.918;2023-04-10T05:47:56;9.50;99.90
43049;DHT22;28673;44.412;11.918;2023-04-10T05:50:40;9.60;99.90
43049;DHT22;28673;44.412;11.918;2023-04-10T05:53:12;9.60;99.90
43049;DHT22;28673;44.412;11.918;2023-04-10T05:55:49;9.70;99.90
43049;DHT22;28673;44.412;11.918;2023-04-10T05:58:34;9.80;99.90
43049;DHT22;28673;44.412;11.918;2023-04-10T06:01:18;9.80;99.90
43049;DHT22;28673;44.412;11.918;2023-04-10T06:03:59;9.90;99.90
43049;DHT22;28673;44.412;11.918;2023-04-10T06:06:30;10.00;99.90
43049;DHT22;28673;44.412;11.918;2023-04-10T06:08:57;10.10;99.90
43049;DHT22;28673;44.412;11.918;2023-04-10T06:11:23;10.20;99.90
43049;DHT22;28673;44.412;11.918;2023-04-10T06:13:52;10.20;99.90
43049;DHT22;28673;44.412;11.918;2023-04-10T06:16:23;10.30;99.90
43049;DHT22;28673;44.412;11.918;2023-04-10T06:18:48;10.30;99.90
43049;DHT22;28673;44.412;11.918;2023-04-10T06:21:17;10.30;99.90
43049;DHT22;28673;44.412;11.918;2023-04-10T06:23:45;10.40;99.90
43049;DHT22;28673;44.412;11.918;2023-04-10T06:26:11;10.50;99.90
43049;DHT22;28673;44.412;11.918;2023-04-10T06:28:37;10.50;99.90
43049;DHT22;28673;44.412;11.918;2023-04-10T06:31:05;10.50;99.90
43049;DHT22;28673;44.412;11.918;2023-04-10T06:33:34;10.60;99.90
43049;DHT22;28673;44.412;11.918;2023-04-10T06:36:02;10.70;99.90
43049;DHT22;28673;44.412;11.918;2023-04-10T06:38:32;10.80;99.90
43049;DHT22;28673;44.412;11.918;2023-04-10T06:41:06;10.80;99.90
43049;DHT22;28673;44.412;11.918;2023-04-10T06:43:33;10.90;99.90
43049;DHT22;28673;44.412;11.918;2023-04-10T06:46:00;10.90;99.90
43049;DHT22;28673;44.412;11.918;2023-04-10T06:48:26;11.00;99.90
43049;DHT22;28673;44.412;11.918;2023-04-10T06:50:52;11.10;99.90
43049;DHT22;28673;44.412;11.918;2023-04-10T06:53:18;11.10;99.90
43049;DHT22;28673;44.412;11.918;2023-04-10T06:55:44;11.20;99.90
43049;DHT22;28673;44.412;11.918;2023-04-10T06:58:09;11.20;99.90
43049;DHT22;28673;44.412;11.918;2023-04-10T07:00:35;11.30;99.90
43049;DHT22;28673;44.412;11.918;2023-04-10T07:03:01;11.30;99.90
43049;DHT22;28673;44.412;11.918;2023-04-10T07:05:27;11.40;99.90
43049;DHT22;28673;44.412;11.918;2023-04-10T07:07:53;11.40;99.80
43049;DHT22;28673;44.412;11.918;2023-04-10T07:10:18;11.50;99.70
43049;DHT22;28673;44.412;11.918;2023-04-10T07:12:44;11.50;99.70
43049;DHT22;28673;44.412;11.918;2023-04-10T07:15:10;11.60;99.60
43049;DHT22;28673;44.412;11.918;2023-04-10T07:17:37;11.60;99.70
43049;DHT22;28673;44.412;11.918;2023-04-10T07:20:04;11.70;99.40
43049;DHT22;28673;44.412;11.918;2023-04-10T07:22:30;11.80;99.30
43049;DHT22;28673;44.412;11.918;2023-04-10T07:24:57;11.80;99.30
43049;DHT22;28673;44.412;11.918;2023-04-10T07:27:24;11.90;99.20
43049;DHT22;28673;44.412;11.918;2023-04-10T07:29:52;12.00;99.20
43049;DHT22;28673;44.412;11.918;2023-04-10T07:32:18;12.00;99.10
43049;DHT22;28673;44.412;11.918;2023-04-10T07:34:44;12.10;99.00
43049;DHT22;28673;44.412;11.918;2023-04-10T07:37:10;12.20;98.90
43049;DHT22;28673;44.412;11.918;2023-04-10T07:39:39;12.20;98.50
43049;DHT22;28673;44.412;11.918;2023-04-10T07:42:05;12.30;98.50
43049;DHT22;28673;44.412;11.918;2023-04-10T07:44:31;12.30;98.60
43049;DHT22;28673;44.412;11.918;2023-04-10T07:46:56;12.40;98.40
43049;DHT22;28673;44.412;11.918;2023-04-10T07:49:23;12.50;98.10
43049;DHT22;28673;44.412;11.918;2023-04-10T07:51:49;12.50;98.00
43049;DHT22;28673;44.412;11.918;2023-04-10T07:54:15;12.50;97.80
43049;DHT22;28673;44.412;11.918;2023-04-10T07:56:41;12.60;97.80
43049;DHT22;28673;44.412;11.918;2023-04-10T07:59:07;12.60;97.80
43049;DHT22;28673;44.412;11.918;2023-04-10T08:01:33;12.70;97.70
43049;DHT22;28673;44.412;11.918;2023-04-10T08:03:59;12.80;97.60
43049;DHT22;28673;44.412;11.918;2023-04-10T08:06:25;12.90;97.60
43049;DHT22;28673;44.412;11.918;2023-04-10T08:08:51;13.00;97.60
43049;DHT22;28673;44.412;11.918;2023-04-10T08:11:32;13.10;97.50
43049;DHT22;28673;44.412;11.918;2023-04-10T08:13:59;13.30;97.10
43049;DHT22;28673;44.412;11.918;2023-04-10T08:16:30;13.60;97.20
43049;DHT22;28673;44.412;11.918;2023-04-10T08:18:57;13.90;96.90
43049;DHT22;28673;44.412;11.918;2023-04-10T08:21:24;14.20;96.60
43049;DHT22;28673;44.412;11.918;2023-04-10T08:23:52;14.40;96.20
43049;DHT22;28673;44.412;11.918;2023-04-10T08:26:18;14.70;95.70
43049;DHT22;28673;44.412;11.918;2023-04-10T08:28:49;15.00;95.50
43049;DHT22;28673;44.412;11.918;2023-04-10T08:31:16;15.20;94.70
43049;DHT22;28673;44.412;11.918;2023-04-10T08:33:42;15.30;94.30
43049;DHT22;28673;44.412;11.918;2023-04-10T08:36:09;15.30;94.20
43049;DHT22;28673;44.412;11.918;2023-04-10T08:38:35;15.40;94.40
43049;DHT22;28673;44.412;11.918;2023-04-10T08:41:01;15.50;94.30
43049;DHT22;28673;44.412;11.918;2023-04-10T08:43:27;15.60;93.90
43049;DHT22;28673;44.412;11.918;2023-04-10T08:45:53;15.80;93.50
43049;DHT22;28673;44.412;11.918;2023-04-10T08:48:19;16.00;93.60
43049;DHT22;28673;44.412;11.918;2023-04-10T08:50:46;16.30;93.50
43049;DHT22;28673;44.412;11.918;2023-04-10T08:53:14;16.50;93.00
43049;DHT22;28673;44.412;11.918;2023-04-10T08:55:41;16.80;93.20
43049;DHT22;28673;44.412;11.918;2023-04-10T08:58:08;17.10;92.40
43049;DHT22;28673;44.412;11.918;2023-04-10T09:00:36;17.40;91.30
43049;DHT22;28673;44.412;11.918;2023-04-10T09:03:09;17.60;90.60
43049;DHT22;28673;44.412;11.918;2023-04-10T09:05:36;17.90;90.40
43049;DHT22;28673;44.412;11.918;2023-04-10T09:08:10;18.10;89.40
43049;DHT22;28673;44.412;11.918;2023-04-10T09:10:38;18.30;80.70
43049;DHT22;28673;44.412;11.918;2023-04-10T09:13:04;18.40;85.30
43049;DHT22;28673;44.412;11.918;2023-04-10T09:15:29;18.50;84.50
43049;DHT22;28673;44.412;11.918;2023-04-10T09:17:56;18.60;85.30
43049;DHT22;28673;44.412;11.918;2023-04-10T09:20:24;18.80;85.10
43049;DHT22;28673;44.412;11.918;2023-04-10T09:22:50;18.90;79.00
43049;DHT22;28673;44.412;11.918;2023-04-10T09:25:34;19.10;79.20
43049;DHT22;28673;44.412;11.918;2023-04-10T09:28:02;19.20;78.80
43049;DHT22;28673;44.412;11.918;2023-04-10T09:30:36;19.40;79.10
43049;DHT22;28673;44.412;11.918;2023-04-10T09:33:02;19.60;79.10
43049;DHT22;28673;44.412;11.918;2023-04-10T09:35:36;19.80;79.10
43049;DHT22;28673;44.412;11.918;2023-04-10T09:38:13;20.00;76.90
43049;DHT22;28673;44.412;11.918;2023-04-10T09:40:40;20.20;75.90
43049;DHT22;28673;44.412;11.918;2023-04-10T09:43:32;20.30;77.00
43049;DHT22;28673;44.412;11.918;2023-04-10T09:45:58;20.30;71.30
43049;DHT22;28673;44.412;11.918;2023-04-10T09:48:24;20.40;73.50
43049;DHT22;28673;44.412;11.918;2023-04-10T09:50:51;20.50;74.70
43049;DHT22;28673;44.412;11.918;2023-04-10T09:53:19;20.40;72.70
43049;DHT22;28673;44.412;11.918;2023-04-10T09:55:47;20.40;71.50
43049;DHT22;28673;44.412;11.918;2023-04-10T09:58:14;20.40;72.30
43049;DHT22;28673;44.412;11.918;2023-04-10T10:00:42;20.40;72.80
43049;DHT22;28673;44.412;11.918;2023-04-10T10:03:18;20.60;72.30
43049;DHT22;28673;44.412;11.918;2023-04-10T10:05:49;20.70;71.60
43049;DHT22;28673;44.412;11.918;2023-04-10T10:08:15;21.00;72.30
43049;DHT22;28673;44.412;11.918;2023-04-10T10:10:50;21.00;72.10
43049;DHT22;28673;44.412;11.918;2023-04-10T10:13:23;21.30;70.40
43049;DHT22;28673;44.412;11.918;2023-04-10T10:16:47;21.50;68.20
43049;DHT22;28673;44.412;11.918;2023-04-10T10:19:15;21.60;70.70
43049;DHT22;28673;44.412;11.918;2023-04-10T10:21:46;21.80;70.60
43049;DHT22;28673;44.412;11.918;2023-04-10T10:24:12;22.00;69.90
43049;DHT22;28673;44.412;11.918;2023-04-10T10:26:39;22.00;66.70
43049;DHT22;28673;44.412;11.918;2023-04-10T10:29:07;21.90;68.90
43049;DHT22;28673;44.412;11.918;2023-04-10T10:31:36;22.10;69.50
43049;DHT22;28673;44.412;11.918;2023-04-10T10:34:04;22.30;69.50
43049;DHT22;28673;44.412;11.918;2023-04-10T10:36:32;22.30;67.70
43049;DHT22;28673;44.412;11.918;2023-04-10T10:42:07;22.30;67.40
43049;DHT22;28673;44.412;11.918;2023-04-10T10:44:54;22.20;65.30
43049;DHT22;28673;44.412;11.918;2023-04-10T10:47:26;22.10;65.80
43049;DHT22;28673;44.412;11.918;2023-04-10T10:50:00;22.20;68.20
43049;DHT22;28673;44.412;11.918;2023-04-10T10:57:58;22.70;66.50
43049;DHT22;28673;44.412;11.918;2023-04-10T11:05:58;23.10;66.20
43049;DHT22;28673;44.412;11.918;2023-04-10T11:08:42;23.30;66.30
43049;DHT22;28673;44.412;11.918;2023-04-10T11:11:18;23.40;64.70
43049;DHT22;28673;44.412;11.918;2023-04-10T11:19:04;23.70;65.60
43049;DHT22;28673;44.412;11.918;2023-04-10T11:21:31;23.80;65.10
43049;DHT22;28673;44.412;11.918;2023-04-10T11:26:36;23.80;63.10
43049;DHT22;28673;44.412;11.918;2023-04-10T11:29:05;23.90;64.30
43049;DHT22;28673;44.412;11.918;2023-04-10T11:31:34;23.90;64.00
43049;DHT22;28673;44.412;11.918;2023-04-10T11:34:04;24.10;62.90
43049;DHT22;28673;44.412;11.918;2023-04-10T11:36:32;24.20;63.00
43049;DHT22;28673;44.412;11.918;2023-04-10T11:39:02;24.20;62.40
43049;DHT22;28673;44.412;11.918;2023-04-10T11:41:35;24.00;62.30
43049;DHT22;28673;44.412;11.918;2023-04-10T11:44:02;24.00;62.10
43049;DHT22;28673;44.412;11.918;2023-04-10T11:46:28;24.00;62.00
43049;DHT22;28673;44.412;11.918;2023-04-10T11:48:59;24.30;61.20
43049;DHT22;28673;44.412;11.918;2023-04-10T11:51:26;24.40;61.20
43049;DHT22;28673;44.412;11.918;2023-04-10T11:54:23;24.50;59.80
43049;DHT22;28673;44.412;11.918;2023-04-10T11:56:56;24.40;56.50
43049;DHT22;28673;44.412;11.918;2023-04-10T11:59:23;24.50;59.90
43049;DHT22;28673;44.412;11.918;2023-04-10T12:01:50;24.50;60.40
43049;DHT22;28673;44.412;11.918;2023-04-10T12:04:22;24.70;60.20
43049;DHT22;28673;44.412;11.918;2023-04-10T12:06:52;24.80;59.20
43049;DHT22;28673;44.412;11.918;2023-04-10T12:09:19;24.90;59.20
43049;DHT22;28673;44.412;11.918;2023-04-10T12:11:52;24.90;58.50
43049;DHT22;28673;44.412;11.918;2023-04-10T12:14:22;24.90;58.00
43049;DHT22;28673;44.412;11.918;2023-04-10T12:16:49;24.80;58.80
43049;DHT22;28673;44.412;11.918;2023-04-10T12:19:16;24.80;58.40
43049;DHT22;28673;44.412;11.918;2023-04-10T12:21:43;25.00;58.40
43049;DHT22;28673;44.412;11.918;2023-04-10T12:24:10;25.00;58.00
43049;DHT22;28673;44.412;11.918;2023-04-10T12:26:36;25.00;58.00
43049;DHT22;28673;44.412;11.918;2023-04-10T12:29:02;25.00;57.70
43049;DHT22;28673;44.412;11.918;2023-04-10T12:31:35;25.20;58.00
43049;DHT22;28673;44.412;11.918;2023-04-10T12:34:02;25.30;57.90
43049;DHT22;28673;44.412;11.918;2023-04-10T12:36:30;25.40;58.00
43049;DHT22;28673;44.412;11.918;2023-04-10T12:39:00;25.40;57.60
43049;DHT22;28673;44.412;11.918;2023-04-10T12:41:31;25.40;57.00
43049;DHT22;28673;44.412;11.918;2023-04-10T12:44:12;25.20;56.50
43049;DHT22;28673;44.412;11.918;2023-04-10T12:46:40;24.90;54.70
43049;DHT22;28673;44.412;11.918;2023-04-10T12:51:51;24.70;57.30
43049;DHT22;28673;44.412;11.918;2023-04-10T12:54:30;24.60;57.20
43049;DHT22;28673;44.412;11.918;2023-04-10T12:56:58;24.60;56.90
43049;DHT22;28673;44.412;11.918;2023-04-10T12:59:25;24.60;59.00
43049;DHT22;28673;44.412;11.918;2023-04-10T13:01:51;24.40;57.70
43049;DHT22;28673;44.412;11.918;2023-04-10T13:04:17;24.40;58.30
43049;DHT22;28673;44.412;11.918;2023-04-10T13:06:47;24.30;58.10
43049;DHT22;28673;44.412;11.918;2023-04-10T13:09:13;24.30;58.50
43049;DHT22;28673;44.412;11.918;2023-04-10T13:11:40;24.20;58.20
43049;DHT22;28673;44.412;11.918;2023-04-10T13:14:07;24.20;58.70
43049;DHT22;28673;44.412;11.918;2023-04-10T13:16:33;24.10;58.60
43049;DHT22;28673;44.412;11.918;2023-04-10T13:18:59;24.20;58.90
43049;DHT22;28673;44.412;11.918;2023-04-10T13:21:25;24.40;59.00
43049;DHT22;28673;44.412;11.918;2023-04-10T13:23:54;24.50;58.50
43049;DHT22;28673;44.412;11.918;2023-04-10T13:26:20;24.60;59.10
43049;DHT22;28673;44.412;11.918;2023-04-10T13:28:46;24.70;59.30
43049;DHT22;28673;44.412;11.918;2023-04-10T13:31:12;24.80;58.50
43049;DHT22;28673;44.412;11.918;2023-04-10T13:33:42;24.90;58.40
43049;DHT22;28673;44.412;11.918;2023-04-10T13:36:10;24.80;59.00
43049;DHT22;28673;44.412;11.918;2023-04-10T13:38:36;24.80;58.50
43049;DHT22;28673;44.412;11.918;2023-04-10T13:41:02;24.70;59.10
43049;DHT22;28673;44.412;11.918;2023-04-10T13:43:28;24.60;59.90
43049;DHT22;28673;44.412;11.918;2023-04-10T13:45:56;24.70;58.50
43049;DHT22;28673;44.412;11.918;2023-04-10T13:48:22;24.60;58.40
43049;DHT22;28673;44.412;11.918;2023-04-10T13:50:48;24.70;58.30
43049;DHT22;28673;44.412;11.918;2023-04-10T13:53:14;24.80;58.70
43049;DHT22;28673;44.412;11.918;2023-04-10T13:55:40;24.70;57.40
43049;DHT22;28673;44.412;11.918;2023-04-10T13:58:10;24.70;57.70
43049;DHT22;28673;44.412;11.918;2023-04-10T14:00:38;24.80;57.40
43049;DHT22;28673;44.412;11.918;2023-04-10T14:03:04;24.60;58.50
43049;DHT22;28673;44.412;11.918;2023-04-10T14:05:30;24.70;58.50
43049;DHT22;28673;44.412;11.918;2023-04-10T14:07:56;24.70;58.80
43049;DHT22;28673;44.412;11.918;2023-04-10T14:10:22;24.70;58.20
43049;DHT22;28673;44.412;11.918;2023-04-10T14:12:48;24.70;57.90
43049;DHT22;28673;44.412;11.918;2023-04-10T14:15:14;24.70;58.50
43049;DHT22;28673;44.412;11.918;2023-04-10T14:17:40;24.80;58.10
43049;DHT22;28673;44.412;11.918;2023-04-10T14:20:06;24.80;57.60
43049;DHT22;28673;44.412;11.918;2023-04-10T14:22:32;24.60;56.80
43049;DHT22;28673;44.412;11.918;2023-04-10T14:24:58;24.40;57.40
43049;DHT22;28673;44.412;11.918;2023-04-10T14:27:24;24.20;57.60
43049;DHT22;28673;44.412;11.918;2023-04-10T14:29:50;24.10;57.20
43049;DHT22;28673;44.412;11.918;2023-04-10T14:32:16;24.00;58.00
43049;DHT22;28673;44.412;11.918;2023-04-10T14:34:41;24.00;58.40
43049;DHT22;28673;44.412;11.918;2023-04-10T14:37:07;24.00;57.90
43049;DHT22;28673;44.412;11.918;2023-04-10T14:39:34;24.10;57.90
43049;DHT22;28673;44.412;11.918;2023-04-10T14:42:00;24.00;57.70
43049;DHT22;28673;44.412;11.918;2023-04-10T14:44:27;23.90;57.60
43049;DHT22;28673;44.412;11.918;2023-04-10T14:46:53;23.80;58.00
43049;DHT22;28673;44.412;11.918;2023-04-10T14:49:18;23.70;58.00
43049;DHT22;28673;44.412;11.918;2023-04-10T14:51:45;23.60;58.30
43049;DHT22;28673;44.412;11.918;2023-04-10T14:54:12;23.50;58.40
43049;DHT22;28673;44.412;11.918;2023-04-10T14:56:39;23.20;58.00
43049;DHT22;28673;44.412;11.918;2023-04-10T14:59:04;23.00;59.10
43049;DHT22;28673;44.412;11.918;2023-04-10T15:01:31;22.70;58.70
43049;DHT22;28673;44.412;11.918;2023-04-10T15:03:57;22.50;60.00
43049;DHT22;28673;44.412;11.918;2023-04-10T15:06:23;22.10;60.50
43049;DHT22;28673;44.412;11.918;2023-04-10T15:08:51;21.80;60.10
43049;DHT22;28673;44.412;11.918;2023-04-10T15:11:17;21.60;60.30
43049;DHT22;28673;44.412;11.918;2023-04-10T15:13:44;21.40;61.00
43049;DHT22;28673;44.412;11.918;2023-04-10T15:16:10;21.20;61.40
43049;DHT22;28673;44.412;11.918;2023-04-10T15:18:36;21.10;61.50
43049;DHT22;28673;44.412;11.918;2023-04-10T15:21:03;21.00;60.80
43049;DHT22;28673;44.412;11.918;2023-04-10T15:23:29;20.90;62.00
43049;DHT22;28673;44.412;11.918;2023-04-10T15:25:54;20.80;62.20
43049;DHT22;28673;44.412;11.918;2023-04-10T15:28:20;20.60;62.00
43049;DHT22;28673;44.412;11.918;2023-04-10T15:30:46;20.60;61.70
43049;DHT22;28673;44.412;11.918;2023-04-10T15:33:15;20.50;62.30
43049;DHT22;28673;44.412;11.918;2023-04-10T15:35:41;20.40;62.10
43049;DHT22;28673;44.412;11.918;2023-04-10T15:38:07;20.40;62.20
43049;DHT22;28673;44.412;11.918;2023-04-10T15:40:33;20.20;61.10
43049;DHT22;28673;44.412;11.918;2023-04-10T15:42:59;20.10;61.50
43049;DHT22;28673;44.412;11.918;2023-04-10T15:45:25;20.10;61.80
43049;DHT22;28673;44.412;11.918;2023-04-10T15:47:50;20.00;61.70
43049;DHT22;28673;44.412;11.918;2023-04-10T15:50:16;19.90;61.70
43049;DHT22;28673;44.412;11.918;2023-04-10T15:52:42;19.70;61.70
43049;DHT22;28673;44.412;11.918;2023-04-10T15:55:08;19.60;62.10
43049;DHT22;28673;44.412;11.918;2023-04-10T15:57:34;19.40;61.90
43049;DHT22;28673;44.412;11.918;2023-04-10T16:00:00;19.40;62.30
43049;DHT22;28673;44.412;11.918;2023-04-10T16:02:30;19.30;62.10
43049;DHT22;28673;44.412;11.918;2023-04-10T16:04:56;19.20;62.20
43049;DHT22;28673;44.412;11.918;2023-04-10T16:07:22;19.10;62.70
43049;DHT22;28673;44.412;11.918;2023-04-10T16:09:48;18.80;62.20